sensor_id;sensor_type;location;lat;lon;timestamp;P1;durP1;ratioP1;P2;durP2;ratioP2
53062;SDS011;40529;52.172;10.548;2022-09-24T00:01:23;6.47;;;4.40;;
53062;SDS011;40529;52.172;10.548;2022-09-24T00:03:54;4.25;;;3.83;;
53062;SDS011;40529;52.172;10.548;2022-09-24T00:06:20;6.10;;;4.07;;
53062;SDS011;40529;52.172;10.548;2022-09-24T00:08:48;4.93;;;3.97;;
53062;SDS011;40529;52.172;10.548;2022-09-24T00:11:14;6.70;;;4.15;;
53062;SDS011;40529;52.172;10.548;2022-09-24T00:13:40;12.60;;;4.40;;
53062;SDS011;40529;52.172;10.548;2022-09-24T00:16:07;4.53;;;4.05;;
53062;SDS011;40529;52.172;10.548;2022-09-24T00:18:33;6.05;;;4.15;;
53062;SDS011;40529;52.172;10.548;2022-09-24T00:21:00;5.55;;;4.05;;
53062;SDS011;40529;52.172;10.548;2022-09-24T00:23:26;5.95;;;4.28;;
53062;SDS011;40529;52.172;10.548;2022-09-24T00:25:52;5.22;;;4.07;;
53062;SDS011;40529;52.172;10.548;2022-09-24T00:28:37;4.20;;;3.72;;
53062;SDS011;40529;52.172;10.548;2022-09-24T00:31:03;5.32;;;4.22;;
53062;SDS011;40529;52.172;10.548;2022-09-24T00:33:31;4.72;;;4.22;;
53062;SDS011;40529;52.172;10.548;2022-09-24T00:35:58;5.47;;;4.43;;
53062;SDS011;40529;52.172;10.548;2022-09-24T00:38:26;5.22;;;4.32;;
53062;SDS011;40529;52.172;10.548;2022-09-24T00:40:52;5.05;;;4.53;;
53062;SDS011;40529;52.172;10.548;2022-09-24T00:43:25;5.80;;;4.25;;
53062;SDS011;40529;52.172;10.548;2022-09-24T00:45:52;5.78;;;4.60;;
53062;SDS011;40529;52.172;10.548;2022-09-24T00:48:19;5.95;;;4.57;;
53062;SDS011;40529;52.172;10.548;2022-09-24T00:50:45;5.13;;;4.38;;
53062;SDS011;40529;52.172;10.548;2022-09-24T00:53:16;4.43;;;4.03;;
53062;SDS011;40529;52.172;10.548;2022-09-24T00:55:44;4.13;;;3.72;;
53062;SDS011;40529;52.172;10.548;2022-09-24T00:58:10;5.40;;;4.15;;
53062;SDS011;40529;52.172;10.548;2022-09-24T01:00:38;4.65;;;4.10;;
53062;SDS011;40529;52.172;10.548;2022-09-24T01:03:07;5.40;;;4.20;;
53062;SDS011;40529;52.172;10.548;2022-09-24T01:05:35;4.70;;;4.18;;
53062;SDS011;40529;52.172;10.548;2022-09-24T01:08:02;4.47;;;4.07;;
53062;SDS011;40529;52.172;10.548;2022-09-24T01:10:51;5.18;;;4.53;;
53062;SDS011;40529;52.172;10.548;2022-09-24T01:18:34;5.25;;;4.75;;
53062;SDS011;40529;52.172;10.548;2022-09-24T01:31:40;5.90;;;5.07;;
53062;SDS011;40529;52.172;10.548;2022-09-24T01:34:08;5.82;;;5.10;;
53062;SDS011;40529;52.172;10.548;2022-09-24T01:36:36;5.65;;;4.90;;
53062;SDS011;40529;52.172;10.548;2022-09-24T01:39:03;6.53;;;4.75;;
53062;SDS011;40529;52.172;10.548;2022-09-24T01:41:31;4.93;;;4.43;;
53062;SDS011;40529;52.172;10.548;2022-09-24T01:43:58;5.13;;;4.43;;
53062;SDS011;40529;52.172;10.548;2022-09-24T01:46:25;6.30;;;4.63;;
53062;SDS011;40529;52.172;10.548;2022-09-24T01:48:52;5.32;;;4.50;;
53062;SDS011;40529;52.172;10.548;2022-09-24T01:53:54;3.45;;;3.15;;
53062;SDS011;40529;52.172;10.548;2022-09-24T01:56:39;6.20;;;4.53;;
53062;SDS011;40529;52.172;10.548;2022-09-24T01:59:24;4.95;;;4.18;;
53062;SDS011;40529;52.172;10.548;2022-09-24T02:04:45;5.75;;;4.00;;
53062;SDS011;40529;52.172;10.548;2022-09-24T02:07:46;4.30;;;3.90;;
53062;SDS011;40529;52.172;10.548;2022-09-24T02:10:05;4.80;;;4.32;;
53062;SDS011;40529;52.172;10.548;2022-09-24T02:12:35;4.15;;;3.72;;
53062;SDS011;40529;52.172;10.548;2022-09-24T02:15:14;5.03;;;4.53;;
53062;SDS011;40529;52.172;10.548;2022-09-24T02:17:42;5.50;;;4.00;;
53062;SDS011;40529;52.172;10.548;2022-09-24T02:20:15;5.87;;;4.80;;
53062;SDS011;40529;52.172;10.548;2022-09-24T02:22:41;5.25;;;3.90;;
53062;SDS011;40529;52.172;10.548;2022-09-24T02:25:09;5.35;;;4.22;;
53062;SDS011;40529;52.172;10.548;2022-09-24T02:27:36;5.70;;;4.13;;
53062;SDS011;40529;52.172;10.548;2022-09-24T02:30:04;4.57;;;4.18;;
53062;SDS011;40529;52.172;10.548;2022-09-24T02:32:30;5.60;;;3.85;;
53062;SDS011;40529;52.172;10.548;2022-09-24T02:34:58;5.72;;;3.90;;
53062;SDS011;40529;52.172;10.548;2022-09-24T02:37:26;6.20;;;4.05;;
53062;SDS011;40529;52.172;10.548;2022-09-24T02:39:53;3.80;;;3.40;;
53062;SDS011;40529;52.172;10.548;2022-09-24T02:42:19;4.85;;;4.10;;
53062;SDS011;40529;52.172;10.548;2022-09-24T02:44:46;5.13;;;3.72;;
53062;SDS011;40529;52.172;10.548;2022-09-24T02:47:12;4.65;;;3.95;;
53062;SDS011;40529;52.172;10.548;2022-09-24T02:49:38;5.57;;;4.45;;
53062;SDS011;40529;52.172;10.548;2022-09-24T02:52:04;4.25;;;3.85;;
53062;SDS011;40529;52.172;10.548;2022-09-24T02:54:30;4.18;;;3.78;;
53062;SDS011;40529;52.172;10.548;2022-09-24T02:56:56;4.97;;;3.75;;
53062;SDS011;40529;52.172;10.548;2022-09-24T02:59:22;4.13;;;3.72;;
53062;SDS011;40529;52.172;10.548;2022-09-24T03:01:48;4.50;;;3.67;;
53062;SDS011;40529;52.172;10.548;2022-09-24T03:04:14;4.13;;;3.67;;
53062;SDS011;40529;52.172;10.548;2022-09-24T03:06:41;6.72;;;4.07;;
53062;SDS011;40529;52.172;10.548;2022-09-24T03:09:07;5.55;;;3.97;;
53062;SDS011;40529;52.172;10.548;2022-09-24T03:11:35;4.88;;;4.07;;
53062;SDS011;40529;52.172;10.548;2022-09-24T03:14:01;4.10;;;3.67;;
53062;SDS011;40529;52.172;10.548;2022-09-24T03:16:27;4.88;;;3.85;;
53062;SDS011;40529;52.172;10.548;2022-09-24T03:18:53;4.65;;;4.20;;
53062;SDS011;40529;52.172;10.548;2022-09-24T03:21:20;4.80;;;4.10;;
53062;SDS011;40529;52.172;10.548;2022-09-24T03:23:46;4.40;;;3.90;;
53062;SDS011;40529;52.172;10.548;2022-09-24T03:26:13;6.35;;;3.65;;
53062;SDS011;40529;52.172;10.548;2022-09-24T03:28:39;4.18;;;3.78;;
53062;SDS011;40529;52.172;10.548;2022-09-24T03:31:05;6.10;;;4.28;;
53062;SDS011;40529;52.172;10.548;2022-09-24T03:33:36;4.03;;;3.67;;
53062;SDS011;40529;52.172;10.548;2022-09-24T03:36:10;4.50;;;4.10;;
53062;SDS011;40529;52.172;10.548;2022-09-24T03:38:36;3.97;;;3.58;;
53062;SDS011;40529;52.172;10.548;2022-09-24T03:41:03;4.38;;;3.95;;
53062;SDS011;40529;52.172;10.548;2022-09-24T03:43:30;5.68;;;4.22;;
53062;SDS011;40529;52.172;10.548;2022-09-24T03:45:57;5.00;;;3.92;;
53062;SDS011;40529;52.172;10.548;2022-09-24T03:48:23;4.50;;;4.10;;
53062;SDS011;40529;52.172;10.548;2022-09-24T03:50:49;4.68;;;4.07;;
53062;SDS011;40529;52.172;10.548;2022-09-24T03:53:16;4.40;;;4.00;;
53062;SDS011;40529;52.172;10.548;2022-09-24T03:55:43;4.57;;;4.10;;
53062;SDS011;40529;52.172;10.548;2022-09-24T03:58:09;4.35;;;3.65;;
53062;SDS011;40529;52.172;10.548;2022-09-24T04:00:35;4.85;;;4.28;;
53062;SDS011;40529;52.172;10.548;2022-09-24T04:03:01;4.78;;;4.28;;
53062;SDS011;40529;52.172;10.548;2022-09-24T04:05:27;5.53;;;4.15;;
53062;SDS011;40529;52.172;10.548;2022-09-24T04:07:54;4.22;;;3.83;;
53062;SDS011;40529;52.172;10.548;2022-09-24T04:10:20;4.40;;;4.00;;
53062;SDS011;40529;52.172;10.548;2022-09-24T04:12:48;5.30;;;4.30;;
53062;SDS011;40529;52.172;10.548;2022-09-24T04:15:14;4.88;;;4.18;;
53062;SDS011;40529;52.172;10.548;2022-09-24T04:17:42;5.05;;;4.45;;
53062;SDS011;40529;52.172;10.548;2022-09-24T04:20:08;7.53;;;4.53;;
53062;SDS011;40529;52.172;10.548;2022-09-24T04:22:34;4.70;;;4.20;;
53062;SDS011;40529;52.172;10.548;2022-09-24T04:25:00;4.97;;;4.45;;
53062;SDS011;40529;52.172;10.548;2022-09-24T04:27:27;5.03;;;3.92;;
53062;SDS011;40529;52.172;10.548;2022-09-24T04:29:53;4.80;;;4.28;;
53062;SDS011;40529;52.172;10.548;2022-09-24T04:32:19;5.15;;;4.65;;
53062;SDS011;40529;52.172;10.548;2022-09-24T04:34:45;5.18;;;4.55;;
53062;SDS011;40529;52.172;10.548;2022-09-24T04:37:11;4.78;;;4.28;;
53062;SDS011;40529;52.172;10.548;2022-09-24T04:39:37;5.03;;;4.53;;
53062;SDS011;40529;52.172;10.548;2022-09-24T04:42:03;5.60;;;4.72;;
53062;SDS011;40529;52.172;10.548;2022-09-24T04:44:29;4.93;;;4.43;;
53062;SDS011;40529;52.172;10.548;2022-09-24T04:46:55;6.13;;;4.97;;
53062;SDS011;40529;52.172;10.548;2022-09-24T04:49:25;5.00;;;4.50;;
53062;SDS011;40529;52.172;10.548;2022-09-24T04:51:53;6.82;;;5.10;;
53062;SDS011;40529;52.172;10.548;2022-09-24T04:54:22;5.97;;;4.85;;
53062;SDS011;40529;52.172;10.548;2022-09-24T04:56:48;5.22;;;4.72;;
53062;SDS011;40529;52.172;10.548;2022-09-24T04:59:14;5.32;;;4.82;;
53062;SDS011;40529;52.172;10.548;2022-09-24T05:01:40;7.60;;;5.70;;
53062;SDS011;40529;52.172;10.548;2022-09-24T05:04:06;6.45;;;4.75;;
53062;SDS011;40529;52.172;10.548;2022-09-24T05:06:32;5.88;;;5.10;;
53062;SDS011;40529;52.172;10.548;2022-09-24T05:09:00;6.75;;;4.82;;
53062;SDS011;40529;52.172;10.548;2022-09-24T05:11:26;7.10;;;5.38;;
53062;SDS011;40529;52.172;10.548;2022-09-24T05:13:52;6.78;;;5.95;;
53062;SDS011;40529;52.172;10.548;2022-09-24T05:16:19;8.38;;;6.55;;
53062;SDS011;40529;52.172;10.548;2022-09-24T05:18:45;11.35;;;6.78;;
53062;SDS011;40529;52.172;10.548;2022-09-24T05:21:11;7.55;;;6.55;;
53062;SDS011;40529;52.172;10.548;2022-09-24T05:23:37;8.02;;;6.75;;
53062;SDS011;40529;52.172;10.548;2022-09-24T05:26:02;10.45;;;7.63;;
53062;SDS011;40529;52.172;10.548;2022-09-24T05:28:47;9.32;;;8.05;;
53062;SDS011;40529;52.172;10.548;2022-09-24T05:31:13;10.10;;;8.40;;
53062;SDS011;40529;52.172;10.548;2022-09-24T05:33:39;11.13;;;7.85;;
53062;SDS011;40529;52.172;10.548;2022-09-24T05:36:06;8.63;;;7.32;;
53062;SDS011;40529;52.172;10.548;2022-09-24T05:38:32;9.98;;;7.85;;
53062;SDS011;40529;52.172;10.548;2022-09-24T05:40:58;10.50;;;8.05;;
53062;SDS011;40529;52.172;10.548;2022-09-24T05:43:24;9.60;;;7.78;;
53062;SDS011;40529;52.172;10.548;2022-09-24T05:45:51;8.48;;;7.55;;
53062;SDS011;40529;52.172;10.548;2022-09-24T05:48:18;9.13;;;7.60;;
53062;SDS011;40529;52.172;10.548;2022-09-24T05:50:45;8.32;;;7.00;;
53062;SDS011;40529;52.172;10.548;2022-09-24T05:53:11;7.85;;;7.03;;
53062;SDS011;40529;52.172;10.548;2022-09-24T05:55:37;7.68;;;6.88;;
53062;SDS011;40529;52.172;10.548;2022-09-24T05:58:04;9.05;;;7.50;;
53062;SDS011;40529;52.172;10.548;2022-09-24T06:00:31;9.32;;;6.75;;
53062;SDS011;40529;52.172;10.548;2022-09-24T06:03:09;10.27;;;7.05;;
53062;SDS011;40529;52.172;10.548;2022-09-24T06:05:36;8.27;;;6.72;;
53062;SDS011;40529;52.172;10.548;2022-09-24T06:08:02;7.30;;;6.60;;
53062;SDS011;40529;52.172;10.548;2022-09-24T06:10:28;7.88;;;7.07;;
53062;SDS011;40529;52.172;10.548;2022-09-24T06:12:54;7.70;;;6.55;;
53062;SDS011;40529;52.172;10.548;2022-09-24T06:15:20;10.50;;;7.78;;
53062;SDS011;40529;52.172;10.548;2022-09-24T06:17:46;9.40;;;7.43;;
53062;SDS011;40529;52.172;10.548;2022-09-24T06:20:13;7.50;;;6.50;;
53062;SDS011;40529;52.172;10.548;2022-09-24T06:22:39;7.93;;;7.07;;
53062;SDS011;40529;52.172;10.548;2022-09-24T06:25:05;9.10;;;7.15;;
53062;SDS011;40529;52.172;10.548;2022-09-24T06:27:31;8.52;;;7.07;;
53062;SDS011;40529;52.172;10.548;2022-09-24T06:29:57;7.07;;;6.38;;
53062;SDS011;40529;52.172;10.548;2022-09-24T06:32:23;8.43;;;7.38;;
53062;SDS011;40529;52.172;10.548;2022-09-24T06:34:49;7.40;;;6.65;;
53062;SDS011;40529;52.172;10.548;2022-09-24T06:37:15;7.22;;;6.53;;
53062;SDS011;40529;52.172;10.548;2022-09-24T06:39:41;8.90;;;6.97;;
53062;SDS011;40529;52.172;10.548;2022-09-24T06:42:07;9.75;;;7.28;;
53062;SDS011;40529;52.172;10.548;2022-09-24T06:44:34;8.55;;;7.47;;
53062;SDS011;40529;52.172;10.548;2022-09-24T06:47:00;10.25;;;7.85;;
53062;SDS011;40529;52.172;10.548;2022-09-24T06:49:26;8.30;;;7.47;;
53062;SDS011;40529;52.172;10.548;2022-09-24T06:51:53;9.20;;;7.07;;
53062;SDS011;40529;52.172;10.548;2022-09-24T06:54:19;9.02;;;7.18;;
53062;SDS011;40529;52.172;10.548;2022-09-24T06:56:45;7.55;;;6.75;;
53062;SDS011;40529;52.172;10.548;2022-09-24T06:59:11;10.65;;;7.30;;
53062;SDS011;40529;52.172;10.548;2022-09-24T07:01:37;10.38;;;6.53;;
53062;SDS011;40529;52.172;10.548;2022-09-24T07:04:03;9.75;;;7.18;;
53062;SDS011;40529;52.172;10.548;2022-09-24T07:06:29;7.28;;;6.55;;
53062;SDS011;40529;52.172;10.548;2022-09-24T07:09:15;8.77;;;6.65;;
53062;SDS011;40529;52.172;10.548;2022-09-24T07:11:41;6.85;;;6.05;;
53062;SDS011;40529;52.172;10.548;2022-09-24T07:14:10;8.23;;;5.15;;
53062;SDS011;40529;52.172;10.548;2022-09-24T07:16:37;7.72;;;5.85;;
53062;SDS011;40529;52.172;10.548;2022-09-24T07:19:03;8.38;;;5.90;;
53062;SDS011;40529;52.172;10.548;2022-09-24T07:21:28;8.27;;;6.68;;
53062;SDS011;40529;52.172;10.548;2022-09-24T07:23:54;6.55;;;5.85;;
53062;SDS011;40529;52.172;10.548;2022-09-24T07:26:21;7.72;;;6.38;;
53062;SDS011;40529;52.172;10.548;2022-09-24T07:28:47;9.85;;;6.30;;
53062;SDS011;40529;52.172;10.548;2022-09-24T07:31:13;6.43;;;5.60;;
53062;SDS011;40529;52.172;10.548;2022-09-24T07:33:39;6.88;;;5.60;;
53062;SDS011;40529;52.172;10.548;2022-09-24T07:36:05;10.77;;;5.60;;
53062;SDS011;40529;52.172;10.548;2022-09-24T07:38:31;6.18;;;5.57;;
53062;SDS011;40529;52.172;10.548;2022-09-24T07:40:59;6.25;;;5.30;;
53062;SDS011;40529;52.172;10.548;2022-09-24T07:43:25;8.00;;;6.32;;
53062;SDS011;40529;52.172;10.548;2022-09-24T07:45:51;9.73;;;6.20;;
53062;SDS011;40529;52.172;10.548;2022-09-24T07:48:19;9.00;;;6.28;;
53062;SDS011;40529;52.172;10.548;2022-09-24T07:50:45;8.43;;;6.25;;
53062;SDS011;40529;52.172;10.548;2022-09-24T07:53:12;7.53;;;5.80;;
53062;SDS011;40529;52.172;10.548;2022-09-24T07:55:39;6.90;;;5.43;;
53062;SDS011;40529;52.172;10.548;2022-09-24T07:58:06;6.43;;;5.72;;
53062;SDS011;40529;52.172;10.548;2022-09-24T08:00:33;9.32;;;5.15;;
53062;SDS011;40529;52.172;10.548;2022-09-24T08:03:00;7.28;;;4.93;;
53062;SDS011;40529;52.172;10.548;2022-09-24T08:05:26;6.15;;;5.20;;
53062;SDS011;40529;52.172;10.548;2022-09-24T08:07:53;8.32;;;5.25;;
53062;SDS011;40529;52.172;10.548;2022-09-24T08:10:20;5.65;;;4.88;;
53062;SDS011;40529;52.172;10.548;2022-09-24T08:12:46;6.32;;;4.88;;
53062;SDS011;40529;52.172;10.548;2022-09-24T08:15:12;5.10;;;4.40;;
53062;SDS011;40529;52.172;10.548;2022-09-24T08:17:38;6.20;;;4.20;;
53062;SDS011;40529;52.172;10.548;2022-09-24T08:20:04;6.03;;;4.65;;
53062;SDS011;40529;52.172;10.548;2022-09-24T08:22:30;6.30;;;4.75;;
53062;SDS011;40529;52.172;10.548;2022-09-24T08:24:56;6.78;;;5.00;;
53062;SDS011;40529;52.172;10.548;2022-09-24T08:27:22;6.90;;;5.82;;
53062;SDS011;40529;52.172;10.548;2022-09-24T08:29:49;8.93;;;5.63;;
53062;SDS011;40529;52.172;10.548;2022-09-24T08:32:15;7.97;;;5.88;;
53062;SDS011;40529;52.172;10.548;2022-09-24T08:34:42;8.20;;;5.90;;
53062;SDS011;40529;52.172;10.548;2022-09-24T08:37:09;8.43;;;6.22;;
53062;SDS011;40529;52.172;10.548;2022-09-24T08:39:34;6.72;;;6.03;;
53062;SDS011;40529;52.172;10.548;2022-09-24T08:43:04;8.40;;;6.20;;
53062;SDS011;40529;52.172;10.548;2022-09-24T08:44:57;8.43;;;5.90;;
53062;SDS011;40529;52.172;10.548;2022-09-24T08:47:52;7.22;;;5.43;;
53062;SDS011;40529;52.172;10.548;2022-09-24T08:50:21;7.60;;;5.75;;
53062;SDS011;40529;52.172;10.548;2022-09-24T09:00:25;8.32;;;6.47;;
53062;SDS011;40529;52.172;10.548;2022-09-24T09:02:56;8.48;;;5.68;;
53062;SDS011;40529;52.172;10.548;2022-09-24T09:05:30;8.50;;;5.80;;
53062;SDS011;40529;52.172;10.548;2022-09-24T09:07:59;5.75;;;4.88;;
53062;SDS011;40529;52.172;10.548;2022-09-24T09:10:29;7.53;;;5.43;;
53062;SDS011;40529;52.172;10.548;2022-09-24T09:13:01;5.75;;;5.00;;
53062;SDS011;40529;52.172;10.548;2022-09-24T09:15:31;7.43;;;5.28;;
53062;SDS011;40529;52.172;10.548;2022-09-24T09:20:36;7.00;;;4.40;;
53062;SDS011;40529;52.172;10.548;2022-09-24T09:23:12;8.10;;;5.43;;
53062;SDS011;40529;52.172;10.548;2022-09-24T09:25:38;6.40;;;5.45;;
53062;SDS011;40529;52.172;10.548;2022-09-24T09:28:09;8.23;;;5.95;;
53062;SDS011;40529;52.172;10.548;2022-09-24T09:30:47;6.75;;;5.40;;
53062;SDS011;40529;52.172;10.548;2022-09-24T09:33:19;8.77;;;6.32;;
53062;SDS011;40529;52.172;10.548;2022-09-24T09:35:52;7.07;;;5.95;;
53062;SDS011;40529;52.172;10.548;2022-09-24T09:43:24;8.13;;;4.90;;
53062;SDS011;40529;52.172;10.548;2022-09-24T09:48:46;8.02;;;6.30;;
53062;SDS011;40529;52.172;10.548;2022-09-24T09:51:20;8.32;;;5.78;;
53062;SDS011;40529;52.172;10.548;2022-09-24T09:53:56;8.55;;;5.25;;
53062;SDS011;40529;52.172;10.548;2022-09-24T09:56:23;7.93;;;6.38;;
53062;SDS011;40529;52.172;10.548;2022-09-24T09:58:50;8.55;;;6.15;;
53062;SDS011;40529;52.172;10.548;2022-09-24T10:01:19;7.28;;;6.43;;
53062;SDS011;40529;52.172;10.548;2022-09-24T10:03:55;8.05;;;5.88;;
53062;SDS011;40529;52.172;10.548;2022-09-24T10:08:51;7.60;;;5.72;;
53062;SDS011;40529;52.172;10.548;2022-09-24T10:11:17;8.60;;;6.38;;
53062;SDS011;40529;52.172;10.548;2022-09-24T10:13:44;11.32;;;6.72;;
53062;SDS011;40529;52.172;10.548;2022-09-24T10:16:11;8.32;;;6.03;;
53062;SDS011;40529;52.172;10.548;2022-09-24T10:18:45;9.02;;;5.88;;
53062;SDS011;40529;52.172;10.548;2022-09-24T10:21:13;8.15;;;6.10;;
53062;SDS011;40529;52.172;10.548;2022-09-24T10:23:43;8.50;;;6.10;;
53062;SDS011;40529;52.172;10.548;2022-09-24T10:26:12;11.75;;;7.15;;
53062;SDS011;40529;52.172;10.548;2022-09-24T10:28:48;8.90;;;7.15;;
53062;SDS011;40529;52.172;10.548;2022-09-24T10:31:37;8.27;;;6.72;;
53062;SDS011;40529;52.172;10.548;2022-09-24T10:34:17;8.43;;;6.13;;
53062;SDS011;40529;52.172;10.548;2022-09-24T10:36:52;8.70;;;6.00;;
53062;SDS011;40529;52.172;10.548;2022-09-24T10:39:22;8.25;;;6.50;;
53062;SDS011;40529;52.172;10.548;2022-09-24T10:41:52;9.13;;;7.00;;
53062;SDS011;40529;52.172;10.548;2022-09-24T10:44:19;8.50;;;6.78;;
53062;SDS011;40529;52.172;10.548;2022-09-24T10:55:12;8.18;;;6.60;;
53062;SDS011;40529;52.172;10.548;2022-09-24T10:57:44;8.27;;;6.25;;
53062;SDS011;40529;52.172;10.548;2022-09-24T11:05:18;11.23;;;6.43;;
53062;SDS011;40529;52.172;10.548;2022-09-24T11:17:59;5.83;;;4.50;;
53062;SDS011;40529;52.172;10.548;2022-09-24T11:20:32;11.07;;;5.60;;
53062;SDS011;40529;52.172;10.548;2022-09-24T11:23:13;11.52;;;5.72;;
53062;SDS011;40529;52.172;10.548;2022-09-24T11:28:22;7.50;;;5.22;;
53062;SDS011;40529;52.172;10.548;2022-09-24T11:35:58;10.57;;;7.13;;
53062;SDS011;40529;52.172;10.548;2022-09-24T11:43:49;13.85;;;8.25;;
53062;SDS011;40529;52.172;10.548;2022-09-24T11:51:34;12.20;;;7.38;;
53062;SDS011;40529;52.172;10.548;2022-09-24T11:56:36;13.05;;;7.55;;
53062;SDS011;40529;52.172;10.548;2022-09-24T12:04:42;11.88;;;7.88;;
53062;SDS011;40529;52.172;10.548;2022-09-24T12:07:11;14.13;;;8.60;;
53062;SDS011;40529;52.172;10.548;2022-09-24T12:09:40;12.40;;;8.13;;
53062;SDS011;40529;52.172;10.548;2022-09-24T12:12:15;10.90;;;7.13;;
53062;SDS011;40529;52.172;10.548;2022-09-24T12:17:20;14.00;;;8.40;;
53062;SDS011;40529;52.172;10.548;2022-09-24T12:19:49;10.82;;;6.82;;
53062;SDS011;40529;52.172;10.548;2022-09-24T12:22:17;9.77;;;5.72;;
53062;SDS011;40529;52.172;10.548;2022-09-24T12:24:47;9.55;;;5.38;;
53062;SDS011;40529;52.172;10.548;2022-09-24T12:27:15;7.45;;;5.72;;
53062;SDS011;40529;52.172;10.548;2022-09-24T12:29:47;9.55;;;5.30;;
53062;SDS011;40529;52.172;10.548;2022-09-24T12:37:52;8.05;;;5.72;;
53062;SDS011;40529;52.172;10.548;2022-09-24T12:42:49;7.65;;;5.88;;
53062;SDS011;40529;52.172;10.548;2022-09-24T12:45:18;7.90;;;5.43;;
53062;SDS011;40529;52.172;10.548;2022-09-24T12:47:50;6.13;;;4.82;;
53062;SDS011;40529;52.172;10.548;2022-09-24T12:50:21;8.15;;;6.13;;
53062;SDS011;40529;52.172;10.548;2022-09-24T12:52:48;8.10;;;5.93;;
53062;SDS011;40529;52.172;10.548;2022-09-24T13:02:58;7.57;;;5.82;;
53062;SDS011;40529;52.172;10.548;2022-09-24T13:07:55;12.00;;;5.93;;
53062;SDS011;40529;52.172;10.548;2022-09-24T13:10:25;7.88;;;5.80;;
53062;SDS011;40529;52.172;10.548;2022-09-24T13:12:52;9.45;;;6.03;;
53062;SDS011;40529;52.172;10.548;2022-09-24T13:15:34;9.15;;;6.97;;
53062;SDS011;40529;52.172;10.548;2022-09-24T13:20:37;9.40;;;7.10;;
53062;SDS011;40529;52.172;10.548;2022-09-24T13:24:08;13.38;;;8.38;;
53062;SDS011;40529;52.172;10.548;2022-09-24T13:26:03;14.30;;;10.80;;
53062;SDS011;40529;52.172;10.548;2022-09-24T13:28:52;16.52;;;10.93;;
53062;SDS011;40529;52.172;10.548;2022-09-24T13:41:44;13.95;;;10.23;;
53062;SDS011;40529;52.172;10.548;2022-09-24T13:44:17;14.52;;;9.50;;
53062;SDS011;40529;52.172;10.548;2022-09-24T13:46:45;13.85;;;10.07;;
53062;SDS011;40529;52.172;10.548;2022-09-24T13:49:12;12.82;;;9.52;;
53062;SDS011;40529;52.172;10.548;2022-09-24T13:51:40;10.82;;;7.80;;
53062;SDS011;40529;52.172;10.548;2022-09-24T13:54:24;11.07;;;8.02;;
53062;SDS011;40529;52.172;10.548;2022-09-24T13:56:58;15.95;;;8.50;;
53062;SDS011;40529;52.172;10.548;2022-09-24T13:59:25;11.05;;;7.30;;
53062;SDS011;40529;52.172;10.548;2022-09-24T14:01:52;12.65;;;7.40;;
53062;SDS011;40529;52.172;10.548;2022-09-24T14:04:18;10.88;;;7.55;;
53062;SDS011;40529;52.172;10.548;2022-09-24T14:06:52;11.85;;;7.13;;
53062;SDS011;40529;52.172;10.548;2022-09-24T14:09:26;11.68;;;8.15;;
53062;SDS011;40529;52.172;10.548;2022-09-24T14:11:53;11.50;;;8.93;;
53062;SDS011;40529;52.172;10.548;2022-09-24T14:14:21;11.52;;;9.43;;
53062;SDS011;40529;52.172;10.548;2022-09-24T14:16:49;15.45;;;10.15;;
53062;SDS011;40529;52.172;10.548;2022-09-24T14:19:15;14.43;;;10.40;;
53062;SDS011;40529;52.172;10.548;2022-09-24T14:21:48;13.32;;;9.10;;
53062;SDS011;40529;52.172;10.548;2022-09-24T14:24:25;12.05;;;8.40;;
53062;SDS011;40529;52.172;10.548;2022-09-24T14:26:53;10.80;;;7.00;;
53062;SDS011;40529;52.172;10.548;2022-09-24T14:29:22;10.70;;;7.38;;
53062;SDS011;40529;52.172;10.548;2022-09-24T14:31:51;12.13;;;8.15;;
53062;SDS011;40529;52.172;10.548;2022-09-24T14:34:21;12.32;;;8.30;;
53062;SDS011;40529;52.172;10.548;2022-09-24T14:36:49;8.82;;;6.55;;
53062;SDS011;40529;52.172;10.548;2022-09-24T14:39:15;11.88;;;7.90;;
53062;SDS011;40529;52.172;10.548;2022-09-24T14:41:41;10.25;;;7.68;;
53062;SDS011;40529;52.172;10.548;2022-09-24T14:44:11;10.73;;;7.25;;
53062;SDS011;40529;52.172;10.548;2022-09-24T14:46:47;10.40;;;7.90;;
53062;SDS011;40529;52.172;10.548;2022-09-24T14:49:18;10.40;;;7.32;;
53062;SDS011;40529;52.172;10.548;2022-09-24T14:51:55;11.18;;;7.85;;
53062;SDS011;40529;52.172;10.548;2022-09-24T14:54:26;11.38;;;7.60;;
53062;SDS011;40529;52.172;10.548;2022-09-24T14:56:53;10.80;;;7.55;;
53062;SDS011;40529;52.172;10.548;2022-09-24T14:59:28;10.40;;;8.02;;
53062;SDS011;40529;52.172;10.548;2022-09-24T15:02:02;10.40;;;7.47;;
53062;SDS011;40529;52.172;10.548;2022-09-24T15:04:28;10.48;;;7.82;;
53062;SDS011;40529;52.172;10.548;2022-09-24T15:06:55;9.60;;;7.20;;
53062;SDS011;40529;52.172;10.548;2022-09-24T15:09:27;11.10;;;7.88;;
53062;SDS011;40529;52.172;10.548;2022-09-24T15:11:54;11.57;;;8.48;;
53062;SDS011;40529;52.172;10.548;2022-09-24T15:14:31;9.38;;;7.43;;
53062;SDS011;40529;52.172;10.548;2022-09-24T15:17:07;10.05;;;7.70;;
53062;SDS011;40529;52.172;10.548;2022-09-24T15:19:34;9.73;;;6.82;;
53062;SDS011;40529;52.172;10.548;2022-09-24T15:22:01;9.95;;;6.78;;
53062;SDS011;40529;52.172;10.548;2022-09-24T15:24:27;10.23;;;6.85;;
53062;SDS011;40529;52.172;10.548;2022-09-24T15:27:01;9.85;;;6.80;;
53062;SDS011;40529;52.172;10.548;2022-09-24T15:29:27;8.13;;;6.80;;
53062;SDS011;40529;52.172;10.548;2022-09-24T15:31:53;8.68;;;6.75;;
53062;SDS011;40529;52.172;10.548;2022-09-24T15:34:20;10.25;;;6.25;;
53062;SDS011;40529;52.172;10.548;2022-09-24T15:36:54;9.05;;;6.40;;
53062;SDS011;40529;52.172;10.548;2022-09-24T15:39:23;9.70;;;6.82;;
53062;SDS011;40529;52.172;10.548;2022-09-24T15:41:50;8.65;;;5.90;;
53062;SDS011;40529;52.172;10.548;2022-09-24T15:44:20;8.95;;;6.90;;
53062;SDS011;40529;52.172;10.548;2022-09-24T15:46:47;9.02;;;6.90;;
53062;SDS011;40529;52.172;10.548;2022-09-24T15:49:15;8.68;;;6.80;;
53062;SDS011;40529;52.172;10.548;2022-09-24T15:51:45;8.82;;;7.00;;
53062;SDS011;40529;52.172;10.548;2022-09-24T15:54:11;9.70;;;6.90;;
53062;SDS011;40529;52.172;10.548;2022-09-24T15:56:37;9.60;;;6.60;;
53062;SDS011;40529;52.172;10.548;2022-09-24T15:59:15;9.50;;;6.97;;
53062;SDS011;40529;52.172;10.548;2022-09-24T16:01:41;10.32;;;7.78;;
53062;SDS011;40529;52.172;10.548;2022-09-24T16:04:10;11.38;;;8.85;;
53062;SDS011;40529;52.172;10.548;2022-09-24T16:06:37;15.70;;;9.63;;
53062;SDS011;40529;52.172;10.548;2022-09-24T16:09:03;14.15;;;9.25;;
53062;SDS011;40529;52.172;10.548;2022-09-24T16:11:29;13.80;;;8.85;;
53062;SDS011;40529;52.172;10.548;2022-09-24T16:13:56;11.77;;;8.40;;
53062;SDS011;40529;52.172;10.548;2022-09-24T16:16:22;10.38;;;7.18;;
53062;SDS011;40529;52.172;10.548;2022-09-24T16:18:48;9.52;;;6.97;;
53062;SDS011;40529;52.172;10.548;2022-09-24T16:21:14;9.60;;;7.60;;
53062;SDS011;40529;52.172;10.548;2022-09-24T16:23:40;10.45;;;7.15;;
53062;SDS011;40529;52.172;10.548;2022-09-24T16:26:06;9.93;;;6.78;;
53062;SDS011;40529;52.172;10.548;2022-09-24T16:28:32;10.23;;;7.28;;
53062;SDS011;40529;52.172;10.548;2022-09-24T16:30:58;9.82;;;6.70;;
53062;SDS011;40529;52.172;10.548;2022-09-24T16:33:25;9.45;;;7.35;;
53062;SDS011;40529;52.172;10.548;2022-09-24T16:35:51;9.23;;;6.95;;
53062;SDS011;40529;52.172;10.548;2022-09-24T16:38:17;8.52;;;6.63;;
53062;SDS011;40529;52.172;10.548;2022-09-24T16:40:43;9.10;;;7.03;;
53062;SDS011;40529;52.172;10.548;2022-09-24T16:43:09;8.40;;;6.43;;
53062;SDS011;40529;52.172;10.548;2022-09-24T16:45:35;10.00;;;7.45;;